Abie, Nebraska
Current Conditions -  °F | °C
As of 11:15 PM on Sunday 19 Oct 2014 (Local Time) from KAHQ Reporting Station
Clear Clear  
Wind Chill: 56°   Ceiling: Unl
Heat Index: 56°   Visibility: 10mi
Dew Point: 47°   Wind: 3mph
Humidity: 70%   Direction: 300°WNW
Pressure: 29.96"   Gusts: NA
Location:  41.33°N, 96.95°W
Report Text: KAHQ 200415Z AUTO 30003KT 10SM CLR 14/08 A2996 RMK AO2 T01350081
Loading
Personal Weather Stations






























Interactive Weather Map
Tropical Storm Tracking
New forecast layout! Learn more

10-Day Weather Forecast

Advertisements
Track Severe Weather on mobile